sensor_id;sensor_type;location;lat;lon;timestamp;pressure;altitude;pressure_sealevel;temperature;humidity
76680;BME280;65597;51.520;-0.224;2023-03-01T00:00:13;103224.79;;;8.67;37.55
76680;BME280;65597;51.520;-0.224;2023-03-01T00:02:39;103225.45;;;8.25;37.50
76680;BME280;65597;51.520;-0.224;2023-03-01T00:05:04;103224.02;;;8.36;37.29
76680;BME280;65597;51.520;-0.224;2023-03-01T00:07:28;103225.95;;;8.42;37.21
76680;BME280;65597;51.520;-0.224;2023-03-01T00:09:54;103224.15;;;8.39;37.29
76680;BME280;65597;51.520;-0.224;2023-03-01T00:12:20;103225.95;;;8.50;37.17
76680;BME280;65597;51.520;-0.224;2023-03-01T00:14:46;103228.02;;;8.47;37.10
76680;BME280;65597;51.520;-0.224;2023-03-01T00:17:10;103228.20;;;8.73;36.91
76680;BME280;65597;51.520;-0.224;2023-03-01T00:19:36;103229.67;;;8.40;36.90
76680;BME280;65597;51.520;-0.224;2023-03-01T00:22:01;103229.98;;;8.35;36.89
76680;BME280;65597;51.520;-0.224;2023-03-01T00:24:27;103232.69;;;8.32;36.64
76680;BME280;65597;51.520;-0.224;2023-03-01T00:26:53;103240.07;;;8.44;36.58
76680;BME280;65597;51.520;-0.224;2023-03-01T00:29:18;103238.46;;;8.43;36.66
76680;BME280;65597;51.520;-0.224;2023-03-01T00:31:43;103241.95;;;8.51;36.62
76680;BME280;65597;51.520;-0.224;2023-03-01T00:34:09;103239.17;;;8.32;36.94
76680;BME280;65597;51.520;-0.224;2023-03-01T00:36:36;103239.31;;;8.65;36.90
76680;BME280;65597;51.520;-0.224;2023-03-01T00:39:01;103240.20;;;8.50;36.74
76680;BME280;65597;51.520;-0.224;2023-03-01T00:41:26;103235.64;;;8.76;36.80
76680;BME280;65597;51.520;-0.224;2023-03-01T00:43:51;103233.78;;;8.56;36.70
76680;BME280;65597;51.520;-0.224;2023-03-01T00:46:18;103227.91;;;8.60;36.73
76680;BME280;65597;51.520;-0.224;2023-03-01T00:48:42;103226.92;;;8.58;36.73
76680;BME280;65597;51.520;-0.224;2023-03-01T00:51:10;103225.38;;;8.60;36.80
76680;BME280;65597;51.520;-0.224;2023-03-01T00:53:33;103229.28;;;8.62;36.72
76680;BME280;65597;51.520;-0.224;2023-03-01T00:55:58;103225.90;;;8.62;36.69
76680;BME280;65597;51.520;-0.224;2023-03-01T00:58:24;103223.64;;;8.64;36.64
76680;BME280;65597;51.520;-0.224;2023-03-01T01:00:49;103222.06;;;8.66;36.93
76680;BME280;65597;51.520;-0.224;2023-03-01T01:03:15;103223.76;;;8.59;36.70
76680;BME280;65597;51.520;-0.224;2023-03-01T01:05:40;103220.97;;;8.55;36.81
76680;BME280;65597;51.520;-0.224;2023-03-01T01:08:06;103220.58;;;8.87;36.76
76680;BME280;65597;51.520;-0.224;2023-03-01T01:10:33;103223.41;;;8.86;36.84
76680;BME280;65597;51.520;-0.224;2023-03-01T01:12:57;103223.19;;;8.64;36.74
76680;BME280;65597;51.520;-0.224;2023-03-01T01:15:25;103225.24;;;8.62;36.81
76680;BME280;65597;51.520;-0.224;2023-03-01T01:17:48;103222.17;;;8.50;36.92
76680;BME280;65597;51.520;-0.224;2023-03-01T01:20:13;103222.31;;;8.54;36.89
76680;BME280;65597;51.520;-0.224;2023-03-01T01:22:39;103223.22;;;8.49;36.85
76680;BME280;65597;51.520;-0.224;2023-03-01T01:25:05;103220.21;;;8.53;36.93
76680;BME280;65597;51.520;-0.224;2023-03-01T01:27:31;103220.84;;;8.56;36.79
76680;BME280;65597;51.520;-0.224;2023-03-01T01:29:55;103220.82;;;8.32;36.99
76680;BME280;65597;51.520;-0.224;2023-03-01T01:32:22;103221.62;;;8.45;37.08
76680;BME280;65597;51.520;-0.224;2023-03-01T01:34:47;103224.04;;;8.59;36.96
76680;BME280;65597;51.520;-0.224;2023-03-01T01:37:12;103221.97;;;8.30;37.04
76680;BME280;65597;51.520;-0.224;2023-03-01T01:39:39;103219.92;;;8.27;37.15
76680;BME280;65597;51.520;-0.224;2023-03-01T01:42:03;103219.08;;;8.31;37.16
76680;BME280;65597;51.520;-0.224;2023-03-01T01:44:29;103218.66;;;8.20;37.27
76680;BME280;65597;51.520;-0.224;2023-03-01T01:46:57;103215.78;;;8.19;37.34
76680;BME280;65597;51.520;-0.224;2023-03-01T01:49:26;103211.37;;;8.06;37.51
76680;BME280;65597;51.520;-0.224;2023-03-01T01:51:48;103207.35;;;8.18;37.36
76680;BME280;65597;51.520;-0.224;2023-03-01T01:54:15;103202.62;;;8.19;37.37
76680;BME280;65597;51.520;-0.224;2023-03-01T01:56:37;103198.48;;;8.29;37.21
76680;BME280;65597;51.520;-0.224;2023-03-01T01:59:02;103196.34;;;8.30;37.27
76680;BME280;65597;51.520;-0.224;2023-03-01T02:01:27;103193.39;;;8.60;37.13
76680;BME280;65597;51.520;-0.224;2023-03-01T02:03:54;103188.83;;;8.28;37.26
76680;BME280;65597;51.520;-0.224;2023-03-01T02:06:24;103187.26;;;8.14;37.42
76680;BME280;65597;51.520;-0.224;2023-03-01T02:08:45;103183.49;;;8.26;37.30
76680;BME280;65597;51.520;-0.224;2023-03-01T02:11:10;103178.22;;;8.49;37.25
76680;BME280;65597;51.520;-0.224;2023-03-01T02:13:36;103181.50;;;8.06;37.49
76680;BME280;65597;51.520;-0.224;2023-03-01T02:16:04;103176.34;;;8.21;37.40
76680;BME280;65597;51.520;-0.224;2023-03-01T02:18:26;103175.16;;;8.45;37.39
76680;BME280;65597;51.520;-0.224;2023-03-01T02:21:03;103169.16;;;8.30;37.27
76680;BME280;65597;51.520;-0.224;2023-03-01T02:23:17;103171.32;;;8.34;37.23
76680;BME280;65597;51.520;-0.224;2023-03-01T02:25:47;103171.45;;;8.35;37.20
76680;BME280;65597;51.520;-0.224;2023-03-01T02:30:34;103167.60;;;8.27;37.37
76680;BME280;65597;51.520;-0.224;2023-03-01T02:33:00;103166.53;;;8.51;37.43
76680;BME280;65597;51.520;-0.224;2023-03-01T02:35:24;103163.64;;;8.25;37.39
76680;BME280;65597;51.520;-0.224;2023-03-01T02:37:50;103159.53;;;8.27;37.36
76680;BME280;65597;51.520;-0.224;2023-03-01T02:40:18;103162.48;;;8.25;37.34
76680;BME280;65597;51.520;-0.224;2023-03-01T02:42:47;103157.18;;;8.45;37.34
76680;BME280;65597;51.520;-0.224;2023-03-01T02:45:07;103157.97;;;8.18;37.32
76680;BME280;65597;51.520;-0.224;2023-03-01T02:47:32;103158.87;;;8.26;37.24
76680;BME280;65597;51.520;-0.224;2023-03-01T02:49:58;103152.60;;;8.27;37.23
76680;BME280;65597;51.520;-0.224;2023-03-01T02:52:33;103146.27;;;8.30;37.16
76680;BME280;65597;51.520;-0.224;2023-03-01T02:54:52;103139.00;;;8.59;37.13
76680;BME280;65597;51.520;-0.224;2023-03-01T02:57:14;103136.17;;;8.50;37.24
76680;BME280;65597;51.520;-0.224;2023-03-01T02:59:40;103134.49;;;8.55;37.17
76680;BME280;65597;51.520;-0.224;2023-03-01T03:02:05;103130.40;;;8.33;37.12
76680;BME280;65597;51.520;-0.224;2023-03-01T03:04:32;103127.40;;;8.40;37.03
76680;BME280;65597;51.520;-0.224;2023-03-01T03:06:56;103130.69;;;8.11;37.49
76680;BME280;65597;51.520;-0.224;2023-03-01T03:09:22;103124.42;;;8.35;37.12
76680;BME280;65597;51.520;-0.224;2023-03-01T03:11:47;103121.82;;;8.63;37.15
76680;BME280;65597;51.520;-0.224;2023-03-01T03:14:14;103121.07;;;8.21;37.42
76680;BME280;65597;51.520;-0.224;2023-03-01T03:16:40;103117.77;;;8.04;37.78
76680;BME280;65597;51.520;-0.224;2023-03-01T03:19:04;103120.03;;;8.33;37.41
76680;BME280;65597;51.520;-0.224;2023-03-01T03:21:29;103118.77;;;8.24;37.68
76680;BME280;65597;51.520;-0.224;2023-03-01T03:23:55;103116.35;;;8.28;37.72
76680;BME280;65597;51.520;-0.224;2023-03-01T03:26:20;103116.77;;;8.34;37.73
76680;BME280;65597;51.520;-0.224;2023-03-01T03:28:46;103114.59;;;8.34;37.83
76680;BME280;65597;51.520;-0.224;2023-03-01T03:31:11;103114.78;;;8.55;37.92
76680;BME280;65597;51.520;-0.224;2023-03-01T03:33:37;103116.88;;;8.37;37.95
76680;BME280;65597;51.520;-0.224;2023-03-01T03:36:03;103112.38;;;8.31;38.23
76680;BME280;65597;51.520;-0.224;2023-03-01T03:38:28;103112.51;;;7.89;38.78
76680;BME280;65597;51.520;-0.224;2023-03-01T03:41:00;103107.43;;;8.28;39.02
76680;BME280;65597;51.520;-0.224;2023-03-01T03:43:20;103104.09;;;8.16;38.96
76680;BME280;65597;51.520;-0.224;2023-03-01T03:45:44;103105.39;;;8.20;38.87
76680;BME280;65597;51.520;-0.224;2023-03-01T03:48:10;103104.38;;;8.46;39.05
76680;BME280;65597;51.520;-0.224;2023-03-01T03:50:36;103100.72;;;8.69;39.29
76680;BME280;65597;51.520;-0.224;2023-03-01T03:53:02;103096.44;;;8.08;39.63
76680;BME280;65597;51.520;-0.224;2023-03-01T03:55:26;103096.83;;;8.13;39.44
76680;BME280;65597;51.520;-0.224;2023-03-01T03:57:52;103092.80;;;8.04;39.77
76680;BME280;65597;51.520;-0.224;2023-03-01T04:00:19;103090.90;;;8.39;39.57
76680;BME280;65597;51.520;-0.224;2023-03-01T04:02:43;103091.15;;;8.16;39.51
76680;BME280;65597;51.520;-0.224;2023-03-01T04:05:12;103088.20;;;8.22;39.51
76680;BME280;65597;51.520;-0.224;2023-03-01T04:07:34;103084.22;;;8.23;39.69
76680;BME280;65597;51.520;-0.224;2023-03-01T04:09:59;103085.06;;;8.20;39.58
76680;BME280;65597;51.520;-0.224;2023-03-01T04:12:25;103087.12;;;8.02;39.79
76680;BME280;65597;51.520;-0.224;2023-03-01T04:14:50;103082.15;;;7.96;39.73
76680;BME280;65597;51.520;-0.224;2023-03-01T04:17:16;103079.96;;;8.59;39.58
76680;BME280;65597;51.520;-0.224;2023-03-01T04:19:41;103079.92;;;8.45;39.58
76680;BME280;65597;51.520;-0.224;2023-03-01T04:22:07;103073.88;;;8.50;39.82
76680;BME280;65597;51.520;-0.224;2023-03-01T04:24:32;103070.95;;;8.39;39.61
76680;BME280;65597;51.520;-0.224;2023-03-01T04:26:58;103071.86;;;8.73;39.67
76680;BME280;65597;51.520;-0.224;2023-03-01T04:29:25;103066.47;;;8.40;39.76
76680;BME280;65597;51.520;-0.224;2023-03-01T04:31:49;103062.75;;;8.20;39.91
76680;BME280;65597;51.520;-0.224;2023-03-01T04:34:15;103064.40;;;8.67;39.87
76680;BME280;65597;51.520;-0.224;2023-03-01T04:36:41;103065.64;;;8.23;39.67
76680;BME280;65597;51.520;-0.224;2023-03-01T04:39:06;103063.60;;;8.48;39.62
76680;BME280;65597;51.520;-0.224;2023-03-01T04:41:33;103062.84;;;8.30;39.56
76680;BME280;65597;51.520;-0.224;2023-03-01T04:43:57;103063.66;;;8.31;39.52
76680;BME280;65597;51.520;-0.224;2023-03-01T04:46:22;103061.97;;;8.60;39.59
76680;BME280;65597;51.520;-0.224;2023-03-01T04:48:48;103058.55;;;8.58;39.67
76680;BME280;65597;51.520;-0.224;2023-03-01T04:51:14;103059.07;;;8.30;39.67
76680;BME280;65597;51.520;-0.224;2023-03-01T04:53:40;103055.40;;;8.36;39.62
76680;BME280;65597;51.520;-0.224;2023-03-01T04:56:05;103052.79;;;8.38;39.47
76680;BME280;65597;51.520;-0.224;2023-03-01T04:58:30;103050.84;;;8.38;39.43
76680;BME280;65597;51.520;-0.224;2023-03-01T05:00:55;103047.62;;;8.32;39.52
76680;BME280;65597;51.520;-0.224;2023-03-01T05:03:21;103047.46;;;8.30;39.48
76680;BME280;65597;51.520;-0.224;2023-03-01T05:05:49;103046.98;;;8.12;39.85
76680;BME280;65597;51.520;-0.224;2023-03-01T05:08:13;103047.72;;;8.21;39.52
76680;BME280;65597;51.520;-0.224;2023-03-01T05:10:37;103046.39;;;8.20;39.69
76680;BME280;65597;51.520;-0.224;2023-03-01T05:13:03;103047.77;;;8.30;39.42
76680;BME280;65597;51.520;-0.224;2023-03-01T05:15:30;103048.43;;;8.55;39.36
76680;BME280;65597;51.520;-0.224;2023-03-01T05:17:57;103050.63;;;8.31;39.46
76680;BME280;65597;51.520;-0.224;2023-03-01T05:20:20;103048.19;;;8.37;39.26
76680;BME280;65597;51.520;-0.224;2023-03-01T05:22:45;103042.97;;;8.41;39.19
76680;BME280;65597;51.520;-0.224;2023-03-01T05:25:10;103043.00;;;8.37;39.19
76680;BME280;65597;51.520;-0.224;2023-03-01T05:27:36;103043.04;;;8.56;39.12
76680;BME280;65597;51.520;-0.224;2023-03-01T05:30:02;103041.13;;;8.38;39.36
76680;BME280;65597;51.520;-0.224;2023-03-01T05:32:27;103037.37;;;8.54;39.36
76680;BME280;65597;51.520;-0.224;2023-03-01T05:34:53;103034.85;;;8.29;39.32
76680;BME280;65597;51.520;-0.224;2023-03-01T05:37:18;103031.53;;;8.53;39.28
76680;BME280;65597;51.520;-0.224;2023-03-01T05:39:44;103029.58;;;8.53;39.30
76680;BME280;65597;51.520;-0.224;2023-03-01T05:42:11;103025.20;;;8.59;39.23
76680;BME280;65597;51.520;-0.224;2023-03-01T05:44:35;103024.93;;;8.53;39.57
76680;BME280;65597;51.520;-0.224;2023-03-01T05:47:00;103024.18;;;8.85;39.53
76680;BME280;65597;51.520;-0.224;2023-03-01T05:49:26;103023.82;;;8.37;39.42
76680;BME280;65597;51.520;-0.224;2023-03-01T05:51:53;103026.90;;;8.18;39.51
76680;BME280;65597;51.520;-0.224;2023-03-01T05:54:18;103029.14;;;8.50;39.59
76680;BME280;65597;51.520;-0.224;2023-03-01T05:56:43;103031.86;;;8.29;39.56
76680;BME280;65597;51.520;-0.224;2023-03-01T05:59:08;103029.40;;;8.31;39.51
76680;BME280;65597;51.520;-0.224;2023-03-01T06:01:34;103031.29;;;8.61;39.36
76680;BME280;65597;51.520;-0.224;2023-03-01T06:03:59;103029.44;;;8.41;39.31
76680;BME280;65597;51.520;-0.224;2023-03-01T06:06:26;103027.42;;;8.64;39.24
76680;BME280;65597;51.520;-0.224;2023-03-01T06:08:50;103027.62;;;8.45;39.16
76680;BME280;65597;51.520;-0.224;2023-03-01T06:11:15;103026.80;;;8.30;39.32
76680;BME280;65597;51.520;-0.224;2023-03-01T06:13:41;103025.01;;;8.35;39.14
76680;BME280;65597;51.520;-0.224;2023-03-01T06:16:07;103027.85;;;8.42;39.15
76680;BME280;65597;51.520;-0.224;2023-03-01T06:18:32;103029.45;;;8.45;39.00
76680;BME280;65597;51.520;-0.224;2023-03-01T06:20:57;103029.24;;;8.41;39.06
76680;BME280;65597;51.520;-0.224;2023-03-01T06:23:23;103032.10;;;8.47;38.90
76680;BME280;65597;51.520;-0.224;2023-03-01T06:25:49;103033.21;;;8.49;39.17
76680;BME280;65597;51.520;-0.224;2023-03-01T06:28:14;103036.78;;;8.43;39.29
76680;BME280;65597;51.520;-0.224;2023-03-01T06:30:39;103035.06;;;8.38;39.12
76680;BME280;65597;51.520;-0.224;2023-03-01T06:33:05;103034.07;;;8.44;39.02
76680;BME280;65597;51.520;-0.224;2023-03-01T06:35:30;103037.40;;;8.45;38.99
76680;BME280;65597;51.520;-0.224;2023-03-01T06:37:57;103041.89;;;8.37;39.23
76680;BME280;65597;51.520;-0.224;2023-03-01T06:40:22;103045.63;;;8.64;39.01
76680;BME280;65597;51.520;-0.224;2023-03-01T06:42:50;103048.73;;;8.42;38.93
76680;BME280;65597;51.520;-0.224;2023-03-01T06:45:12;103045.46;;;8.91;38.98
76680;BME280;65597;51.520;-0.224;2023-03-01T06:47:38;103045.18;;;8.65;38.99
76680;BME280;65597;51.520;-0.224;2023-03-01T06:50:04;103047.55;;;8.11;39.08
76680;BME280;65597;51.520;-0.224;2023-03-01T06:52:29;103048.22;;;8.38;38.99
76680;BME280;65597;51.520;-0.224;2023-03-01T06:55:01;103045.08;;;8.38;38.96
76680;BME280;65597;51.520;-0.224;2023-03-01T06:57:20;103046.83;;;8.32;38.85
76680;BME280;65597;51.520;-0.224;2023-03-01T06:59:46;103047.20;;;8.23;39.05
76680;BME280;65597;51.520;-0.224;2023-03-01T07:02:12;103050.44;;;8.35;38.95
76680;BME280;65597;51.520;-0.224;2023-03-01T07:04:37;103050.41;;;8.35;39.09
76680;BME280;65597;51.520;-0.224;2023-03-01T07:07:02;103050.16;;;8.68;38.88
76680;BME280;65597;51.520;-0.224;2023-03-01T07:09:28;103051.26;;;8.61;38.82
76680;BME280;65597;51.520;-0.224;2023-03-01T07:11:53;103054.61;;;8.43;38.78
76680;BME280;65597;51.520;-0.224;2023-03-01T07:14:19;103055.21;;;8.43;38.63
76680;BME280;65597;51.520;-0.224;2023-03-01T07:16:44;103054.08;;;8.39;38.91
76680;BME280;65597;51.520;-0.224;2023-03-01T07:19:10;103054.29;;;8.37;38.55
76680;BME280;65597;51.520;-0.224;2023-03-01T07:21:35;103056.02;;;8.44;38.59
76680;BME280;65597;51.520;-0.224;2023-03-01T07:24:01;103058.63;;;8.53;38.39
76680;BME280;65597;51.520;-0.224;2023-03-01T07:26:26;103060.10;;;8.48;38.20
76680;BME280;65597;51.520;-0.224;2023-03-01T07:28:52;103058.24;;;8.49;38.28
76680;BME280;65597;51.520;-0.224;2023-03-01T07:31:17;103054.52;;;8.35;38.32
76680;BME280;65597;51.520;-0.224;2023-03-01T07:33:43;103058.03;;;8.74;38.28
76680;BME280;65597;51.520;-0.224;2023-03-01T07:36:09;103057.81;;;8.36;38.45
76680;BME280;65597;51.520;-0.224;2023-03-01T07:38:34;103060.96;;;8.38;38.31
76680;BME280;65597;51.520;-0.224;2023-03-01T07:41:02;103059.17;;;8.70;37.97
76680;BME280;65597;51.520;-0.224;2023-03-01T07:43:25;103058.17;;;8.54;38.41
76680;BME280;65597;51.520;-0.224;2023-03-01T07:45:50;103055.39;;;8.53;38.46
76680;BME280;65597;51.520;-0.224;2023-03-01T07:48:16;103052.79;;;8.49;38.32
76680;BME280;65597;51.520;-0.224;2023-03-01T07:50:41;103049.68;;;8.58;40.47
76680;BME280;65597;51.520;-0.224;2023-03-01T07:53:07;103045.26;;;8.69;38.24
76680;BME280;65597;51.520;-0.224;2023-03-01T07:55:32;103040.56;;;8.67;38.02
76680;BME280;65597;51.520;-0.224;2023-03-01T07:57:58;103044.60;;;8.72;38.05
76680;BME280;65597;51.520;-0.224;2023-03-01T08:00:24;103042.79;;;8.91;37.74
76680;BME280;65597;51.520;-0.224;2023-03-01T08:02:49;103042.96;;;8.79;37.64
76680;BME280;65597;51.520;-0.224;2023-03-01T08:05:15;103046.20;;;8.97;37.62
76680;BME280;65597;51.520;-0.224;2023-03-01T08:07:41;103052.01;;;8.89;37.42
76680;BME280;65597;51.520;-0.224;2023-03-01T08:10:06;103052.10;;;8.91;37.67
76680;BME280;65597;51.520;-0.224;2023-03-01T08:12:31;103050.11;;;8.92;37.72
76680;BME280;65597;51.520;-0.224;2023-03-01T08:14:56;103047.83;;;8.90;37.66
76680;BME280;65597;51.520;-0.224;2023-03-01T08:17:22;103047.34;;;8.80;37.97
76680;BME280;65597;51.520;-0.224;2023-03-01T08:19:49;103041.31;;;8.76;37.83
76680;BME280;65597;51.520;-0.224;2023-03-01T08:22:13;103041.93;;;8.90;37.49
76680;BME280;65597;51.520;-0.224;2023-03-01T08:24:38;103034.37;;;8.39;38.45
76680;BME280;65597;51.520;-0.224;2023-03-01T08:27:04;103030.13;;;8.56;37.86
76680;BME280;65597;51.520;-0.224;2023-03-01T08:29:30;103032.93;;;8.72;37.46
76680;BME280;65597;51.520;-0.224;2023-03-01T08:31:54;103024.09;;;8.37;38.22
76680;BME280;65597;51.520;-0.224;2023-03-01T08:34:20;103027.00;;;8.69;37.97
76680;BME280;65597;51.520;-0.224;2023-03-01T08:36:46;103025.55;;;8.69;38.77
76680;BME280;65597;51.520;-0.224;2023-03-01T08:39:14;103021.44;;;8.52;37.68
76680;BME280;65597;51.520;-0.224;2023-03-01T08:41:37;103023.32;;;8.73;37.38
76680;BME280;65597;51.520;-0.224;2023-03-01T08:44:04;103022.48;;;8.64;37.65
76680;BME280;65597;51.520;-0.224;2023-03-01T08:46:29;103023.39;;;8.82;37.08
76680;BME280;65597;51.520;-0.224;2023-03-01T08:48:53;103022.90;;;8.87;37.40
76680;BME280;65597;51.520;-0.224;2023-03-01T08:51:20;103023.15;;;8.91;37.11
76680;BME280;65597;51.520;-0.224;2023-03-01T08:53:44;103019.84;;;8.92;37.02
76680;BME280;65597;51.520;-0.224;2023-03-01T08:56:11;103018.02;;;8.91;37.04
76680;BME280;65597;51.520;-0.224;2023-03-01T08:58:35;103014.83;;;8.97;36.63
76680;BME280;65597;51.520;-0.224;2023-03-01T09:01:01;103020.09;;;8.85;36.85
76680;BME280;65597;51.520;-0.224;2023-03-01T09:03:26;103017.67;;;8.99;36.67
76680;BME280;65597;51.520;-0.224;2023-03-01T09:05:52;103019.61;;;8.93;36.81
76680;BME280;65597;51.520;-0.224;2023-03-01T09:08:17;103018.43;;;8.96;36.79
76680;BME280;65597;51.520;-0.224;2023-03-01T09:10:42;103017.79;;;8.91;37.18
76680;BME280;65597;51.520;-0.224;2023-03-01T09:13:08;103017.50;;;8.94;36.75
76680;BME280;65597;51.520;-0.224;2023-03-01T09:15:33;103014.50;;;8.86;36.71
76680;BME280;65597;51.520;-0.224;2023-03-01T09:17:59;103015.77;;;9.18;36.79
76680;BME280;65597;51.520;-0.224;2023-03-01T09:20:24;103011.28;;;8.91;37.24
76680;BME280;65597;51.520;-0.224;2023-03-01T09:22:50;103004.95;;;9.04;37.19
76680;BME280;65597;51.520;-0.224;2023-03-01T09:25:15;102997.99;;;9.06;36.95
76680;BME280;65597;51.520;-0.224;2023-03-01T09:27:41;103000.29;;;9.09;36.72
76680;BME280;65597;51.520;-0.224;2023-03-01T09:30:09;102996.99;;;8.93;36.76
76680;BME280;65597;51.520;-0.224;2023-03-01T09:32:33;103000.20;;;9.04;36.93
76680;BME280;65597;51.520;-0.224;2023-03-01T09:34:57;103001.41;;;8.96;37.32
76680;BME280;65597;51.520;-0.224;2023-03-01T09:37:23;102996.52;;;8.67;37.39
76680;BME280;65597;51.520;-0.224;2023-03-01T09:39:48;102995.93;;;8.72;36.97
76680;BME280;65597;51.520;-0.224;2023-03-01T09:42:14;102991.21;;;8.98;37.00
76680;BME280;65597;51.520;-0.224;2023-03-01T09:44:46;102990.04;;;9.01;37.14
76680;BME280;65597;51.520;-0.224;2023-03-01T09:47:08;102985.03;;;8.69;37.25
76680;BME280;65597;51.520;-0.224;2023-03-01T09:49:33;102983.71;;;8.77;37.30
76680;BME280;65597;51.520;-0.224;2023-03-01T09:51:59;102981.32;;;8.82;37.13
76680;BME280;65597;51.520;-0.224;2023-03-01T09:54:21;102977.48;;;8.91;37.22
76680;BME280;65597;51.520;-0.224;2023-03-01T09:56:57;102971.99;;;8.88;37.25
76680;BME280;65597;51.520;-0.224;2023-03-01T09:59:21;102971.97;;;8.88;36.74
76680;BME280;65597;51.520;-0.224;2023-03-01T10:01:41;102968.52;;;8.86;36.62
76680;BME280;65597;51.520;-0.224;2023-03-01T10:04:12;102970.99;;;8.91;36.63
76680;BME280;65597;51.520;-0.224;2023-03-01T10:06:29;102972.12;;;8.70;36.59
76680;BME280;65597;51.520;-0.224;2023-03-01T10:08:56;102965.72;;;8.77;36.84
76680;BME280;65597;51.520;-0.224;2023-03-01T10:11:22;102968.14;;;8.73;36.58
76680;BME280;65597;51.520;-0.224;2023-03-01T10:13:48;102969.08;;;8.70;36.71
76680;BME280;65597;51.520;-0.224;2023-03-01T10:16:16;102966.05;;;8.70;36.79
76680;BME280;65597;51.520;-0.224;2023-03-01T10:18:37;102966.15;;;8.88;36.23
76680;BME280;65597;51.520;-0.224;2023-03-01T10:21:07;102966.80;;;8.79;36.35
76680;BME280;65597;51.520;-0.224;2023-03-01T10:23:31;102968.24;;;8.96;36.67
76680;BME280;65597;51.520;-0.224;2023-03-01T10:26:07;102975.62;;;8.81;37.11
76680;BME280;65597;51.520;-0.224;2023-03-01T10:28:24;102973.30;;;8.83;37.23
76680;BME280;65597;51.520;-0.224;2023-03-01T10:30:44;102973.60;;;8.73;37.13
76680;BME280;65597;51.520;-0.224;2023-03-01T10:33:16;102967.08;;;8.76;37.02
76680;BME280;65597;51.520;-0.224;2023-03-01T10:35:35;102970.59;;;8.93;36.72
76680;BME280;65597;51.520;-0.224;2023-03-01T10:38:04;102969.29;;;9.14;36.61
76680;BME280;65597;51.520;-0.224;2023-03-01T10:40:26;102965.60;;;9.22;36.53
76680;BME280;65597;51.520;-0.224;2023-03-01T10:42:51;102959.82;;;9.04;36.50
76680;BME280;65597;51.520;-0.224;2023-03-01T10:45:27;102958.14;;;9.08;37.01
76680;BME280;65597;51.520;-0.224;2023-03-01T10:47:42;102958.80;;;8.60;36.59
76680;BME280;65597;51.520;-0.224;2023-03-01T10:50:18;102957.13;;;9.11;36.24
76680;BME280;65597;51.520;-0.224;2023-03-01T10:52:35;102951.80;;;9.11;36.31
76680;BME280;65597;51.520;-0.224;2023-03-01T10:55:01;102947.10;;;8.59;36.60
76680;BME280;65597;51.520;-0.224;2023-03-01T10:57:31;102944.61;;;8.66;36.34
76680;BME280;65597;51.520;-0.224;2023-03-01T11:02:17;102939.09;;;8.47;36.53
76680;BME280;65597;51.520;-0.224;2023-03-01T11:04:57;102936.38;;;8.82;36.59
76680;BME280;65597;51.520;-0.224;2023-03-01T11:07:06;102932.94;;;8.44;36.68
76680;BME280;65597;51.520;-0.224;2023-03-01T11:09:33;102926.20;;;8.56;37.02
76680;BME280;65597;51.520;-0.224;2023-03-01T11:12:00;102925.91;;;8.47;36.80
76680;BME280;65597;51.520;-0.224;2023-03-01T11:14:24;102922.64;;;8.25;36.31
76680;BME280;65597;51.520;-0.224;2023-03-01T11:16:57;102917.12;;;8.61;36.15
76680;BME280;65597;51.520;-0.224;2023-03-01T11:19:19;102913.32;;;8.60;36.16
76680;BME280;65597;51.520;-0.224;2023-03-01T11:21:42;102914.81;;;9.05;36.03
76680;BME280;65597;51.520;-0.224;2023-03-01T11:24:09;102915.15;;;8.53;36.41
76680;BME280;65597;51.520;-0.224;2023-03-01T11:26:31;102906.21;;;8.36;36.74
76680;BME280;65597;51.520;-0.224;2023-03-01T11:28:58;102904.88;;;8.45;36.68
76680;BME280;65597;51.520;-0.224;2023-03-01T11:31:23;102902.15;;;8.60;36.38
76680;BME280;65597;51.520;-0.224;2023-03-01T11:33:49;102899.48;;;8.51;36.75
76680;BME280;65597;51.520;-0.224;2023-03-01T11:36:19;102899.02;;;8.58;36.46
76680;BME280;65597;51.520;-0.224;2023-03-01T11:38:38;102895.15;;;8.75;36.29
76680;BME280;65597;51.520;-0.224;2023-03-01T11:41:06;102885.87;;;8.48;36.88
76680;BME280;65597;51.520;-0.224;2023-03-01T11:43:33;102889.07;;;8.68;36.99
76680;BME280;65597;51.520;-0.224;2023-03-01T11:46:07;102886.18;;;8.46;37.29
76680;BME280;65597;51.520;-0.224;2023-03-01T11:48:34;102884.85;;;8.56;37.33
76680;BME280;65597;51.520;-0.224;2023-03-01T11:50:47;102886.10;;;8.54;37.56
76680;BME280;65597;51.520;-0.224;2023-03-01T11:53:23;102881.49;;;8.49;37.76
76680;BME280;65597;51.520;-0.224;2023-03-01T11:55:48;102880.12;;;8.61;37.76
76680;BME280;65597;51.520;-0.224;2023-03-01T11:58:13;102869.70;;;8.40;38.15
76680;BME280;65597;51.520;-0.224;2023-03-01T12:00:37;102861.20;;;8.58;38.27
76680;BME280;65597;51.520;-0.224;2023-03-01T12:03:02;102859.78;;;8.64;37.93
76680;BME280;65597;51.520;-0.224;2023-03-01T12:05:28;102856.19;;;8.59;37.68
76680;BME280;65597;51.520;-0.224;2023-03-01T12:07:48;102851.43;;;9.06;37.36
76680;BME280;65597;51.520;-0.224;2023-03-01T12:10:20;102846.95;;;8.58;38.12
76680;BME280;65597;51.520;-0.224;2023-03-01T12:12:44;102840.86;;;8.80;37.37
76680;BME280;65597;51.520;-0.224;2023-03-01T12:15:11;102833.44;;;8.64;37.29
76680;BME280;65597;51.520;-0.224;2023-03-01T12:17:36;102827.90;;;8.43;37.64
76680;BME280;65597;51.520;-0.224;2023-03-01T12:20:01;102828.67;;;8.15;38.22
76680;BME280;65597;51.520;-0.224;2023-03-01T12:22:23;102824.75;;;8.14;38.09
76680;BME280;65597;51.520;-0.224;2023-03-01T12:24:56;102823.12;;;8.08;38.19
76680;BME280;65597;51.520;-0.224;2023-03-01T12:27:19;102817.19;;;8.11;37.86
76680;BME280;65597;51.520;-0.224;2023-03-01T12:29:35;102816.00;;;8.27;37.81
76680;BME280;65597;51.520;-0.224;2023-03-01T12:32:13;102805.96;;;8.15;37.73
76680;BME280;65597;51.520;-0.224;2023-03-01T12:34:37;102803.74;;;8.48;37.67
76680;BME280;65597;51.520;-0.224;2023-03-01T12:36:57;102801.74;;;8.67;37.39
76680;BME280;65597;51.520;-0.224;2023-03-01T12:39:26;102797.31;;;8.44;37.68
76680;BME280;65597;51.520;-0.224;2023-03-01T12:41:46;102792.55;;;8.47;37.87
76680;BME280;65597;51.520;-0.224;2023-03-01T12:44:12;102789.16;;;8.12;38.02